createdAt,value
2022-10-11T00:01:15.840Z,11.08
2022-10-11T00:03:46.708Z,10.88
2022-10-11T00:06:17.509Z,17.23
2022-10-11T00:08:48.313Z,16.62
2022-10-11T00:11:19.224Z,9.50
2022-10-11T00:13:50.454Z,14.13
2022-10-11T00:16:20.965Z,13.25
2022-10-11T00:18:52.343Z,12.68
2022-10-11T00:21:23.129Z,12.00
2022-10-11T00:23:53.923Z,14.28
2022-10-11T00:26:25.141Z,14.90
2022-10-11T00:28:55.852Z,10.15
2022-10-11T00:31:26.546Z,12.15
2022-10-11T00:33:58.879Z,7.72
2022-10-11T00:36:29.747Z,10.68
2022-10-11T00:39:01.826Z,10.55
2022-10-11T00:41:32.507Z,7.53
2022-10-11T00:44:06.135Z,8.20
2022-10-11T00:46:37.100Z,8.85
2022-10-11T00:49:10.731Z,8.38
2022-10-11T00:51:44.485Z,9.68
2022-10-11T00:54:17.978Z,9.03
2022-10-11T00:56:51.482Z,9.50
2022-10-11T00:59:24.877Z,8.03
2022-10-11T01:01:55.657Z,9.38
2022-10-11T01:04:26.316Z,7.47
2022-10-11T01:06:58.222Z,8.55
2022-10-11T01:09:29.860Z,7.70
2022-10-11T01:12:03.351Z,8.90
2022-10-11T01:14:34.886Z,9.60
2022-10-11T01:17:06.470Z,8.98
2022-10-11T01:19:39.547Z,12.95
2022-10-11T01:22:12.579Z,10.08
2022-10-11T01:24:45.885Z,8.13
2022-10-11T01:27:19.029Z,7.15
2022-10-11T01:29:52.315Z,6.03
2022-10-11T01:32:25.621Z,7.17
2022-10-11T01:34:58.628Z,6.72
2022-10-11T01:37:32.107Z,30.72
2022-10-11T01:40:05.263Z,34.45
2022-10-11T01:42:37.351Z,6.50
2022-10-11T01:45:10.657Z,7.40
2022-10-11T01:47:42.692Z,9.78
2022-10-11T01:50:15.815Z,6.75
2022-10-11T01:52:48.320Z,7.15
2022-10-11T01:55:21.992Z,7.95
2022-10-11T01:57:55.364Z,6.28
2022-10-11T02:00:28.786Z,6.72
2022-10-11T02:03:00.247Z,5.37
2022-10-11T02:05:33.299Z,5.03
2022-10-11T02:08:06.834Z,6.55
2022-10-11T02:10:39.876Z,6.15
2022-10-11T02:13:13.393Z,7.97
2022-10-11T02:15:46.684Z,6.65
2022-10-11T02:18:20.074Z,7.90
2022-10-11T02:20:52.679Z,10.32
2022-10-11T02:23:25.833Z,27.00
2022-10-11T02:25:58.864Z,8.48
2022-10-11T02:28:31.975Z,7.25
2022-10-11T02:31:05.028Z,8.25
2022-10-11T02:33:38.845Z,9.58
2022-10-11T02:36:12.383Z,7.37
2022-10-11T02:38:45.758Z,7.35
2022-10-11T02:41:19.022Z,8.43
2022-10-11T02:43:52.536Z,6.28
2022-10-11T02:46:24.086Z,7.40
2022-10-11T02:48:55.080Z,7.25
2022-10-11T02:51:28.202Z,6.42
2022-10-11T02:53:59.126Z,6.85
2022-10-11T02:56:33.124Z,8.70
2022-10-11T02:59:03.685Z,7.70
2022-10-11T03:01:34.703Z,7.37
2022-10-11T03:04:05.552Z,11.90
2022-10-11T03:06:36.591Z,6.28
2022-10-11T03:09:07.389Z,9.33
2022-10-11T03:11:37.972Z,5.95
2022-10-11T03:14:09.025Z,7.25
2022-10-11T03:16:39.758Z,7.75
2022-10-11T03:19:10.478Z,4.95
2022-10-11T03:21:41.143Z,6.58
2022-10-11T03:24:11.821Z,8.05
2022-10-11T03:26:42.352Z,5.78
2022-10-11T03:29:13.187Z,6.78
2022-10-11T03:31:43.802Z,7.55
2022-10-11T03:34:14.691Z,6.00
2022-10-11T03:36:45.535Z,6.58
2022-10-11T03:39:16.333Z,8.13
2022-10-11T03:41:47.149Z,7.12
2022-10-11T03:44:18.244Z,8.60
2022-10-11T03:46:48.858Z,10.45
2022-10-11T03:49:19.572Z,5.20
2022-10-11T03:51:50.335Z,6.00
2022-10-11T03:54:21.002Z,7.45
2022-10-11T03:56:52.327Z,5.10
2022-10-11T03:59:23.190Z,9.53
2022-10-11T04:01:54.179Z,5.45
2022-10-11T04:04:24.782Z,6.55
2022-10-11T04:06:55.351Z,6.17
2022-10-11T04:09:26.213Z,5.12
2022-10-11T04:11:57.015Z,6.67
2022-10-11T04:14:28.598Z,6.75
2022-10-11T04:17:00.476Z,7.53
2022-10-11T04:19:31.533Z,7.78
2022-10-11T04:22:02.319Z,5.62
2022-10-11T04:24:33.130Z,5.08
2022-10-11T04:27:03.743Z,6.45
2022-10-11T04:29:34.551Z,5.83
2022-10-11T04:32:05.556Z,4.47
2022-10-11T04:34:36.175Z,9.00
2022-10-11T04:37:06.665Z,5.70
2022-10-11T04:39:38.140Z,5.10
2022-10-11T04:42:09.201Z,7.95
2022-10-11T04:44:40.056Z,6.25
2022-10-11T04:47:10.638Z,5.37
2022-10-11T04:49:42.147Z,7.30
2022-10-11T04:52:12.975Z,6.33
2022-10-11T04:54:44.232Z,6.87
2022-10-11T04:57:15.276Z,7.40
2022-10-11T04:59:50.013Z,5.87
2022-10-11T05:02:18.322Z,7.17
2022-10-11T05:04:49.142Z,6.60
2022-10-11T05:07:20.158Z,5.75
2022-10-11T05:09:50.948Z,6.67
2022-10-11T05:12:21.663Z,5.50
2022-10-11T05:14:52.720Z,6.10
2022-10-11T05:17:23.413Z,6.00
2022-10-11T05:19:54.349Z,6.65
2022-10-11T05:22:25.291Z,4.85
2022-10-11T05:24:55.992Z,6.37
2022-10-11T05:27:26.489Z,5.72
2022-10-11T05:29:57.261Z,4.70
2022-10-11T05:32:28.232Z,5.60
2022-10-11T05:34:59.152Z,4.90
2022-10-11T05:37:29.812Z,7.00
2022-10-11T05:40:00.725Z,5.78
2022-10-11T05:42:31.661Z,5.33
2022-10-11T05:45:03.328Z,5.50
2022-10-11T05:47:34.115Z,9.25
2022-10-11T05:50:05.405Z,6.45
2022-10-11T05:52:36.006Z,6.50
2022-10-11T05:55:06.739Z,7.40
2022-10-11T05:57:37.810Z,6.10
2022-10-11T06:00:09.451Z,6.17
2022-10-11T06:02:40.403Z,7.62
2022-10-11T06:05:11.397Z,6.03
2022-10-11T06:07:42.431Z,6.55
2022-10-11T06:10:13.398Z,6.30
2022-10-11T06:12:44.016Z,5.67
2022-10-11T06:15:16.099Z,6.25
2022-10-11T06:17:47.266Z,6.75
2022-10-11T06:20:18.063Z,6.10
2022-10-11T06:22:52.315Z,8.23
2022-10-11T06:25:23.231Z,7.10
2022-10-11T06:27:54.075Z,7.83
2022-10-11T06:30:25.735Z,5.30
2022-10-11T06:32:57.518Z,5.95
2022-10-11T06:35:28.546Z,9.50
2022-10-11T06:37:59.171Z,7.50
2022-10-11T06:40:30.457Z,5.75
2022-10-11T06:43:01.143Z,6.10
2022-10-11T06:45:32.294Z,6.42
2022-10-11T06:48:03.207Z,8.25
2022-10-11T06:50:57.771Z,7.97
2022-10-11T06:53:07.493Z,7.55
2022-10-11T06:55:38.171Z,7.95
2022-10-11T06:58:08.962Z,7.03
2022-10-11T07:00:39.487Z,4.90
2022-10-11T07:03:11.113Z,6.35
2022-10-11T07:05:41.777Z,6.17
2022-10-11T07:08:12.477Z,7.05
2022-10-11T07:10:43.030Z,7.20
2022-10-11T07:13:17.360Z,6.05
2022-10-11T07:15:47.472Z,5.35
2022-10-11T07:18:18.431Z,5.33
2022-10-11T07:20:49.155Z,6.08
2022-10-11T07:23:21.082Z,5.87
2022-10-11T07:26:01.670Z,6.15
2022-10-11T07:28:32.376Z,7.53
2022-10-11T07:31:05.892Z,6.50
2022-10-11T07:33:37.046Z,7.40
2022-10-11T07:36:08.865Z,7.15
2022-10-11T07:38:42.268Z,4.25
2022-10-11T07:41:13.902Z,8.58
2022-10-11T07:43:44.959Z,7.35
2022-10-11T07:46:21.163Z,5.40
2022-10-11T07:48:58.041Z,5.92
2022-10-11T07:51:29.581Z,4.50
2022-10-11T07:54:04.691Z,5.30
2022-10-11T07:56:32.967Z,8.08
2022-10-11T07:59:04.989Z,5.20
2022-10-11T08:01:36.408Z,7.28
2022-10-11T08:04:07.495Z,5.67
2022-10-11T08:06:38.521Z,5.62
2022-10-11T08:09:09.327Z,7.03
2022-10-11T08:11:40.493Z,5.87
2022-10-11T08:14:12.385Z,7.08
2022-10-11T08:16:43.334Z,6.45
2022-10-11T08:19:14.315Z,7.10
2022-10-11T08:21:45.118Z,7.20
2022-10-11T08:24:16.922Z,8.60
2022-10-11T08:26:47.984Z,6.05
2022-10-11T08:29:18.640Z,7.90
2022-10-11T08:31:49.633Z,4.92
2022-10-11T08:34:21.556Z,5.42
2022-10-11T08:36:52.434Z,6.33
2022-10-11T08:39:23.051Z,9.73
2022-10-11T08:41:56.791Z,8.30
2022-10-11T08:44:34.176Z,7.00
2022-10-11T08:47:02.757Z,8.75
2022-10-11T08:49:35.654Z,5.28
2022-10-11T08:52:09.539Z,5.33
2022-10-11T08:54:44.521Z,4.97
2022-10-11T08:57:17.537Z,7.12
2022-10-11T08:59:50.700Z,6.37
2022-10-11T09:02:24.159Z,5.78
2022-10-11T09:04:57.334Z,6.70
2022-10-11T09:07:29.207Z,6.58
2022-10-11T09:10:01.264Z,7.45
2022-10-11T09:12:39.829Z,6.85
2022-10-11T09:15:09.899Z,8.95
2022-10-11T09:17:42.932Z,7.87
2022-10-11T09:20:16.291Z,7.28
2022-10-11T09:22:50.213Z,17.30
2022-10-11T09:25:23.811Z,9.00
2022-10-11T09:28:06.211Z,7.90
2022-10-11T09:30:41.859Z,8.68
2022-10-11T09:35:47.006Z,9.48
2022-10-11T09:38:22.823Z,8.48
2022-10-11T09:40:54.651Z,8.33
2022-10-11T09:43:45.641Z,8.08
2022-10-11T09:46:18.739Z,8.30
2022-10-11T09:48:49.869Z,9.15
2022-10-11T09:51:22.909Z,7.65
2022-10-11T09:53:56.257Z,7.22
2022-10-11T09:56:29.457Z,8.93
2022-10-11T09:59:02.620Z,9.28
2022-10-11T10:01:34.660Z,8.75
2022-10-11T10:04:08.303Z,8.95
2022-10-11T10:06:39.562Z,8.60
2022-10-11T10:09:12.621Z,11.08
2022-10-11T10:11:43.243Z,9.38
2022-10-11T10:14:25.131Z,8.80
2022-10-11T10:17:02.966Z,10.10
2022-10-11T10:19:38.931Z,8.28
2022-10-11T10:22:08.898Z,9.93
2022-10-11T10:24:42.440Z,8.63
2022-10-11T10:27:15.518Z,14.73
2022-10-11T10:29:48.108Z,7.78
2022-10-11T10:32:21.799Z,8.98
2022-10-11T10:34:55.378Z,8.78
2022-10-11T10:37:29.224Z,9.00
2022-10-11T10:40:01.081Z,9.25
2022-10-11T10:42:32.362Z,10.53
2022-10-11T10:45:04.726Z,9.43
2022-10-11T10:47:37.977Z,10.08
2022-10-11T10:50:11.389Z,9.73
2022-10-11T10:52:43.359Z,11.50
2022-10-11T10:55:15.275Z,8.48
2022-10-11T10:57:48.305Z,9.53
2022-10-11T11:00:22.019Z,7.92
2022-10-11T11:02:55.886Z,6.95
2022-10-11T11:05:28.901Z,8.38
2022-10-11T11:08:00.868Z,11.38
2022-10-11T11:10:34.159Z,9.10
2022-10-11T11:13:06.020Z,9.45
2022-10-11T11:15:39.833Z,9.35
2022-10-11T11:18:11.892Z,13.75
2022-10-11T11:20:45.015Z,12.53
2022-10-11T11:23:18.583Z,10.95
2022-10-11T11:25:51.574Z,18.55
2022-10-11T11:28:23.558Z,12.07
2022-10-11T11:30:56.916Z,8.60
2022-10-11T11:33:29.943Z,10.85
2022-10-11T11:36:04.368Z,9.75
2022-10-11T11:38:37.722Z,9.13
2022-10-11T11:41:14.011Z,10.15
2022-10-11T11:43:49.472Z,10.75
2022-10-11T11:49:13.782Z,13.10
2022-10-11T11:51:47.259Z,8.18
2022-10-11T11:54:24.709Z,10.32
2022-10-11T11:56:58.075Z,10.75
2022-10-11T12:00:06.633Z,10.55
2022-10-11T12:02:28.830Z,14.43
2022-10-11T12:05:00.666Z,11.12
2022-10-11T12:07:32.768Z,9.35
2022-10-11T12:10:10.185Z,9.08
2022-10-11T12:12:42.439Z,10.32
2022-10-11T12:15:21.686Z,10.75
2022-10-11T12:17:55.734Z,9.90
2022-10-11T12:20:36.623Z,11.68
2022-10-11T12:23:11.267Z,10.23
2022-10-11T12:25:45.105Z,12.88
2022-10-11T12:28:18.256Z,12.07
2022-10-11T12:30:48.138Z,10.28
2022-10-11T12:33:22.520Z,9.70
2022-10-11T12:35:54.111Z,10.53
2022-10-11T12:38:27.259Z,9.93
2022-10-11T12:41:01.847Z,9.95
2022-10-11T12:43:36.506Z,12.18
2022-10-11T12:46:09.776Z,12.88
2022-10-11T12:48:42.878Z,10.13
2022-10-11T12:51:17.080Z,10.10
2022-10-11T12:54:02.484Z,10.60
2022-10-11T12:56:22.990Z,12.25
2022-10-11T12:58:56.301Z,11.63
2022-10-11T13:01:28.917Z,10.82
2022-10-11T13:04:02.104Z,10.65
2022-10-11T13:06:35.750Z,12.28
2022-10-11T13:09:07.303Z,11.57
2022-10-11T13:11:40.431Z,12.70
2022-10-11T13:14:16.572Z,12.70
2022-10-11T13:16:49.597Z,13.50
2022-10-11T13:19:21.874Z,15.30
2022-10-11T13:21:55.593Z,17.48
2022-10-11T13:24:27.821Z,16.85
2022-10-11T13:26:59.420Z,22.80
2022-10-11T13:29:31.057Z,15.83
2022-10-11T13:32:06.206Z,17.67
2022-10-11T13:34:42.185Z,15.30
2022-10-11T13:37:15.383Z,18.85
2022-10-11T13:39:47.187Z,17.32
2022-10-11T13:42:19.920Z,18.35
2022-10-11T13:44:50.938Z,22.00
2022-10-11T13:47:24.012Z,20.30
2022-10-11T13:49:57.127Z,21.37
2022-10-11T13:52:27.888Z,20.48
2022-10-11T13:55:00.079Z,19.37
2022-10-11T13:57:35.064Z,20.40
2022-10-11T14:00:06.935Z,19.00
2022-10-11T14:02:38.445Z,22.48
2022-10-11T14:05:09.986Z,18.32
2022-10-11T14:07:41.682Z,24.50
2022-10-11T14:10:14.707Z,18.20
2022-10-11T14:12:45.923Z,21.15
2022-10-11T14:15:19.172Z,22.45
2022-10-11T14:17:50.307Z,18.80
2022-10-11T14:20:21.767Z,20.30
2022-10-11T14:22:54.170Z,22.45
2022-10-11T14:25:25.170Z,18.75
2022-10-11T14:27:57.207Z,20.68
2022-10-11T14:30:30.950Z,19.55
2022-10-11T14:33:03.935Z,21.45
2022-10-11T14:35:38.354Z,19.73
2022-10-11T14:38:08.867Z,18.98
2022-10-11T14:40:39.726Z,20.23
2022-10-11T14:43:12.021Z,19.90
2022-10-11T14:45:42.705Z,18.90
2022-10-11T14:48:13.319Z,19.35
2022-10-11T14:50:46.496Z,17.87
2022-10-11T14:53:17.705Z,18.73
2022-10-11T14:55:48.649Z,17.77
2022-10-11T14:58:20.394Z,17.02
2022-10-11T15:00:52.114Z,18.15
2022-10-11T15:03:22.955Z,23.60
2022-10-11T15:05:53.755Z,17.95
2022-10-11T15:08:24.367Z,18.40
2022-10-11T15:10:55.477Z,20.95
2022-10-11T15:13:25.995Z,19.32
2022-10-11T15:15:56.523Z,21.57
2022-10-11T15:18:27.047Z,21.35
2022-10-11T15:20:59.075Z,20.20
2022-10-11T15:23:29.691Z,20.40
2022-10-11T15:26:01.136Z,20.37
2022-10-11T15:28:34.221Z,20.80
2022-10-11T15:31:04.977Z,25.08
2022-10-11T15:33:38.102Z,19.45
2022-10-11T15:36:11.395Z,21.23
2022-10-11T15:38:42.830Z,23.35
2022-10-11T15:41:16.690Z,22.77
2022-10-11T15:43:48.848Z,20.88
2022-10-11T15:46:21.970Z,20.12
2022-10-11T15:48:53.877Z,24.92
2022-10-11T15:51:24.461Z,24.05
2022-10-11T15:53:54.987Z,24.20
2022-10-11T15:56:25.502Z,22.70
2022-10-11T15:58:57.018Z,20.92
2022-10-11T16:01:28.354Z,17.45
2022-10-11T16:03:59.034Z,20.45
2022-10-11T16:06:30.365Z,20.55
2022-10-11T16:09:01.094Z,20.43
2022-10-11T16:11:31.824Z,20.10
2022-10-11T16:14:02.446Z,20.68
2022-10-11T16:16:33.046Z,22.00
2022-10-11T16:19:06.341Z,20.70
2022-10-11T16:21:36.809Z,19.92
2022-10-11T16:24:07.832Z,20.88
2022-10-11T16:26:38.498Z,19.02
2022-10-11T16:29:08.971Z,18.62
2022-10-11T16:31:39.537Z,15.95
2022-10-11T16:34:10.232Z,21.77
2022-10-11T16:36:42.194Z,20.43
2022-10-11T16:39:15.570Z,20.77
2022-10-11T16:41:46.784Z,18.05
2022-10-11T16:44:20.119Z,17.32
2022-10-11T16:46:51.727Z,19.77
2022-10-11T16:49:24.445Z,19.62
2022-10-11T16:51:57.348Z,19.52
2022-10-11T16:54:29.462Z,20.77
2022-10-11T16:57:01.800Z,18.37
2022-10-11T16:59:32.795Z,19.85
2022-10-11T17:02:03.488Z,16.02
2022-10-11T17:04:35.411Z,18.60
2022-10-11T17:07:05.961Z,18.77
2022-10-11T17:09:39.173Z,19.73
2022-10-11T17:12:09.610Z,17.00
2022-10-11T17:14:42.189Z,20.02
2022-10-11T17:17:13.935Z,18.00
2022-10-11T17:19:45.707Z,18.17
2022-10-11T17:22:19.030Z,20.72
2022-10-11T17:24:49.647Z,17.02
2022-10-11T17:27:20.261Z,15.00
2022-10-11T17:29:50.965Z,19.17
2022-10-11T17:32:21.488Z,15.43
2022-10-11T17:34:52.019Z,17.77
2022-10-11T17:37:22.528Z,17.70
2022-10-11T17:39:54.694Z,16.93
2022-10-11T17:42:25.429Z,14.58
2022-10-11T17:44:55.926Z,16.85
2022-10-11T17:47:26.619Z,14.00
2022-10-11T17:49:57.246Z,15.28
2022-10-11T17:52:27.947Z,18.30
2022-10-11T17:54:58.774Z,17.35
2022-10-11T17:57:29.271Z,15.93
2022-10-11T17:59:59.875Z,13.22
2022-10-11T18:02:30.472Z,16.97
2022-10-11T18:05:01.176Z,15.80
2022-10-11T18:07:31.747Z,15.58
2022-10-11T18:10:02.260Z,17.98
2022-10-11T18:12:32.754Z,15.90
2022-10-11T18:15:03.303Z,16.55
2022-10-11T18:17:34.205Z,16.45
2022-10-11T18:20:05.685Z,16.90
2022-10-11T18:22:36.524Z,20.60
2022-10-11T18:25:07.309Z,15.40
2022-10-11T18:27:37.817Z,18.20
2022-10-11T18:30:09.319Z,15.55
2022-10-11T18:32:39.838Z,18.85
2022-10-11T18:35:11.049Z,14.75
2022-10-11T18:37:41.743Z,16.42
2022-10-11T18:40:12.602Z,16.95
2022-10-11T18:42:43.211Z,14.65
2022-10-11T18:45:14.018Z,14.45
2022-10-11T18:47:44.643Z,16.35
2022-10-11T18:50:15.473Z,19.92
2022-10-11T18:52:46.571Z,17.12
2022-10-11T18:55:18.493Z,14.30
2022-10-11T18:57:49.400Z,12.15
2022-10-11T19:00:40.263Z,17.17
2022-10-11T19:02:53.138Z,14.47
2022-10-11T19:05:23.856Z,16.27
2022-10-11T19:07:54.386Z,15.65
2022-10-11T19:10:24.956Z,19.80
2022-10-11T19:12:55.663Z,18.85
2022-10-11T19:15:28.760Z,12.82
2022-10-11T19:17:58.318Z,15.98
2022-10-11T19:20:28.777Z,17.07
2022-10-11T19:22:59.719Z,14.63
2022-10-11T19:25:30.318Z,14.63
2022-10-11T19:28:00.962Z,13.78
2022-10-11T19:30:32.912Z,14.05
2022-10-11T19:33:05.393Z,16.40
2022-10-11T19:35:36.010Z,17.45
2022-10-11T19:38:06.644Z,16.17
2022-10-11T19:40:39.638Z,14.38
2022-10-11T19:43:10.306Z,14.47
2022-10-11T19:45:41.026Z,16.73
2022-10-11T19:48:12.540Z,21.37
2022-10-11T19:50:43.333Z,15.23
2022-10-11T19:53:14.158Z,13.88
2022-10-11T19:55:46.622Z,16.20
2022-10-11T19:58:16.657Z,15.63
2022-10-11T20:00:47.551Z,15.45
2022-10-11T20:03:18.176Z,15.70
2022-10-11T20:05:48.861Z,14.30
2022-10-11T20:08:19.872Z,16.75
2022-10-11T20:10:50.388Z,14.90
2022-10-11T20:13:20.908Z,16.67
2022-10-11T20:15:51.655Z,17.50
2022-10-11T20:18:22.273Z,17.02
2022-10-11T20:20:55.163Z,16.05
2022-10-11T20:23:27.742Z,17.07
2022-10-11T20:26:01.167Z,15.78
2022-10-11T20:28:33.510Z,15.40
2022-10-11T20:31:05.343Z,16.73
2022-10-11T20:33:36.063Z,17.27
2022-10-11T20:36:09.545Z,17.27
2022-10-11T20:38:42.568Z,18.10
2022-10-11T20:41:15.963Z,16.42
2022-10-11T20:43:48.129Z,23.57
2022-10-11T20:46:21.289Z,19.55
2022-10-11T20:48:58.896Z,15.30
2022-10-11T20:51:26.740Z,19.05
2022-10-11T20:53:57.621Z,18.05
2022-10-11T20:56:28.661Z,15.83
2022-10-11T20:59:01.169Z,17.73
2022-10-11T21:01:34.583Z,17.55
2022-10-11T21:04:06.536Z,15.45
2022-10-11T21:06:46.097Z,19.80
2022-10-11T21:09:17.301Z,15.83
2022-10-11T21:11:48.043Z,17.23
2022-10-11T21:14:19.032Z,18.27
2022-10-11T21:16:49.531Z,18.20
2022-10-11T21:19:20.360Z,16.80
2022-10-11T21:21:53.733Z,19.48
2022-10-11T21:24:23.263Z,17.95
2022-10-11T21:26:58.157Z,15.53
2022-10-11T21:29:25.887Z,16.95
2022-10-11T21:31:56.622Z,18.77
2022-10-11T21:34:27.120Z,16.62
2022-10-11T21:36:57.637Z,17.32
2022-10-11T21:39:28.340Z,15.90
2022-10-11T21:41:58.864Z,17.05
2022-10-11T21:44:31.118Z,18.98
2022-10-11T21:47:06.988Z,18.32
2022-10-11T21:49:33.971Z,20.60
2022-10-11T21:52:04.797Z,16.20
2022-10-11T21:54:35.292Z,17.20
2022-10-11T21:57:05.986Z,19.75
2022-10-11T21:59:36.749Z,18.65
2022-10-11T22:02:07.502Z,20.35
2022-10-11T22:04:38.995Z,16.50
2022-10-11T22:07:09.730Z,17.17
2022-10-11T22:09:40.194Z,16.87
2022-10-11T22:12:10.933Z,17.85
2022-10-11T22:14:41.526Z,19.40
2022-10-11T22:17:12.136Z,18.92
2022-10-11T22:19:42.767Z,16.60
2022-10-11T22:22:13.502Z,17.12
2022-10-11T22:24:44.044Z,16.25
2022-10-11T22:27:14.578Z,17.98
2022-10-11T22:29:45.444Z,18.37
2022-10-11T22:32:16.063Z,19.75
2022-10-11T22:34:57.536Z,17.12
2022-10-11T22:37:28.155Z,17.82
2022-10-11T22:39:58.647Z,18.00
2022-10-11T22:42:30.555Z,22.90
2022-10-11T22:45:01.150Z,17.73
2022-10-11T22:47:31.774Z,16.93
2022-10-11T22:50:02.286Z,16.60
2022-10-11T22:52:32.825Z,16.40
2022-10-11T22:55:03.502Z,20.00
2022-10-11T22:57:34.565Z,16.82
2022-10-11T23:00:06.101Z,19.65
2022-10-11T23:02:36.846Z,18.35
2022-10-11T23:05:08.056Z,20.75
2022-10-11T23:07:39.196Z,15.20
2022-10-11T23:10:10.486Z,15.08
2022-10-11T23:12:41.094Z,19.73
2022-10-11T23:15:12.319Z,18.85
2022-10-11T23:17:43.610Z,18.10
2022-10-11T23:20:14.429Z,22.45
2022-10-11T23:22:45.151Z,17.82
2022-10-11T23:25:15.688Z,18.30
2022-10-11T23:27:46.184Z,19.60
2022-10-11T23:30:17.394Z,17.32
2022-10-11T23:32:47.902Z,18.15
2022-10-11T23:35:18.746Z,18.40
2022-10-11T23:37:49.243Z,19.15
2022-10-11T23:40:19.759Z,20.43
2022-10-11T23:42:50.374Z,16.77
2022-10-11T23:45:21.218Z,20.50
2022-10-11T23:47:51.742Z,17.12
2022-10-11T23:50:22.443Z,18.77
2022-10-11T23:52:53.301Z,14.87
2022-10-11T23:55:23.873Z,18.05
2022-10-11T23:57:54.388Z,15.20
